Flight Track Log - Related Links

Times and Time Zones

All times are in EDT time to prevent confusion due to time zone crossing. See the KAP624 flight status page for this flight to view local times or setup timezone preferences in your user account.

Time Position Orientation Groundspeed Altitude Reporting Facility
EDT Latitude Longitude Course Direction KTS MPH feet Rate Location/Type
Fri 07:23:00 AM 41.5804 -70.8405 287° West  Level Estimated
Fri 07:24:00 AM 41.5675 -70.8173 127° Southeast  Level FlightAware Approximate
Fri 07:25:00 AM 41.5545 -70.7940 127° Southeast  Level FlightAware Approximate
Fri 07:26:00 AM 41.5415 -70.7708 127° Southeast  Level FlightAware Approximate
Fri 07:27:00 AM 41.5286 -70.7476 127° Southeast  Level FlightAware Approximate
Fri 07:28:00 AM 41.5156 -70.7244 127° Southeast  Level FlightAware Approximate
Fri 07:29:00 AM 41.5026 -70.7012 127° Southeast  Level FlightAware Approximate
Fri 07:30:00 AM 41.4840 -70.6863 270° West  Level Estimated
Fri 07:31:00 AM 41.4654 -70.6714 304° West  Level Estimated
Fri 07:32:00 AM 41.4522 -70.6484 127° Southeast  Level FlightAware Approximate
Fri 07:33:00 AM 41.4390 -70.6255 127° Southeast  Level FlightAware Approximate
Fri 07:34:00 AM 41.4177 -70.6201 283° West  Level Estimated
Fri 07:35:00 AM 41.3979 -70.6085 156° South  Level FlightAware Approximate
Fri 07:36:00 AM 41.3934 -70.6139 156° South  Level Estimated
Fri 07:37:00 AM 41.3934 -70.6139 134° Southeast  Level Estimated
Fri 07:38:00 AM 41.3934 -70.6139 283° West  Level Estimated
Fri 07:39:00 AM 41.3934 -70.6139 283° West  Level Estimated
Fri 07:40:00 AM 41.3934 -70.6139 283° West  Level Estimated
Fri 07:41:00 AM 41.3934 -70.6139 283° West  Level Estimated
Fri 07:42:00 AM 41.3934 -70.6139 283° West  Level Estimated
Fri 07:43:00 AM 41.3934 -70.6139 283° West  Level Estimated
Fri 07:44:00 AM 41.3934 -70.6139 283° West  Level Estimated
Fri 07:45:00 AM 41.3934 -70.6139 283° West  Level Estimated
Fri 07:46:00 AM 41.3934 -70.6139 283° West  Level Estimated
Fri 07:47:00 AM 41.3934 -70.6139 283° West  Level Estimated
Fri 07:48:00 AM 41.3934 -70.6139 283° West  Level Estimated
Fri 07:49:00 AM 41.3934 -70.6139 283° West  Level Estimated
Fri 07:50:00 AM 41.3934 -70.6139 283° West  Level Estimated
Fri 07:51:00 AM 41.3934 -70.6139 283° West  Level Estimated
Fri 07:52:00 AM 41.3934 -70.6139 283° West  Level Estimated
Fri 07:53:00 AM 41.3934 -70.6139 283° West  Level Estimated

Login

Don't have an account? Register now (free) for customized features, flight alerts, and more!